Terminal Aerodrome Forecast
Issued by NWS

Current Version | Previous Version | Text Only | Print | Product List | Glossary On
Versions: 1 2 3 4 5 6 7 8 9 10 11 12 13 14 15 16 17 18 19 20
000
FTUS42 KTAE 292327
TAFABY
TAF
KABY 292327Z 3000/3024 32003KT P6SM FEW200
     FM300800 00000KT 3SM BR SCT003
     FM301300 16006KT P6SM SCT020
     FM301900 20008KT P6SM SCT040=

USA.gov is the U.S. government's official web portal to all federal, state and local government web resources and services.